sensor_id;sensor_type;location;lat;lon;timestamp;P1;durP1;ratioP1;P2;durP2;ratioP2
35434;SDS011;21556;55.782;37.528;2022-12-29T00:01:55;3.13;;;2.17;;
35434;SDS011;21556;55.782;37.528;2022-12-29T00:04:21;6.75;;;1.25;;
35434;SDS011;21556;55.782;37.528;2022-12-29T00:06:46;5.13;;;1.73;;
35434;SDS011;21556;55.782;37.528;2022-12-29T00:09:15;5.63;;;1.70;;
35434;SDS011;21556;55.782;37.528;2022-12-29T00:11:42;1.80;;;0.93;;
35434;SDS011;21556;55.782;37.528;2022-12-29T00:14:08;5.80;;;1.37;;
35434;SDS011;21556;55.782;37.528;2022-12-29T00:16:52;3.57;;;1.57;;
35434;SDS011;21556;55.782;37.528;2022-12-29T00:19:18;8.07;;;1.63;;
35434;SDS011;21556;55.782;37.528;2022-12-29T00:22:02;3.70;;;1.47;;
35434;SDS011;21556;55.782;37.528;2022-12-29T00:24:46;5.50;;;1.30;;
35434;SDS011;21556;55.782;37.528;2022-12-29T00:27:30;7.07;;;2.00;;
35434;SDS011;21556;55.782;37.528;2022-12-29T00:30:16;4.10;;;1.30;;
35434;SDS011;21556;55.782;37.528;2022-12-29T00:33:00;8.43;;;1.40;;
35434;SDS011;21556;55.782;37.528;2022-12-29T00:35:50;4.40;;;0.83;;
35434;SDS011;21556;55.782;37.528;2022-12-29T00:38:17;6.20;;;1.73;;
35434;SDS011;21556;55.782;37.528;2022-12-29T00:41:03;3.53;;;1.03;;
35434;SDS011;21556;55.782;37.528;2022-12-29T00:43:47;6.17;;;1.43;;
35434;SDS011;21556;55.782;37.528;2022-12-29T00:46:39;4.68;;;1.38;;
35434;SDS011;21556;55.782;37.528;2022-12-29T00:49:05;7.53;;;1.20;;
35434;SDS011;21556;55.782;37.528;2022-12-29T00:52:08;5.80;;;1.40;;
35434;SDS011;21556;55.782;37.528;2022-12-29T00:54:35;6.30;;;2.10;;
35434;SDS011;21556;55.782;37.528;2022-12-29T00:57:01;4.47;;;1.20;;
35434;SDS011;21556;55.782;37.528;2022-12-29T00:59:28;5.20;;;1.57;;
35434;SDS011;21556;55.782;37.528;2022-12-29T01:01:56;5.25;;;1.33;;
35434;SDS011;21556;55.782;37.528;2022-12-29T01:04:22;8.37;;;1.77;;
35434;SDS011;21556;55.782;37.528;2022-12-29T01:06:48;6.67;;;1.30;;
35434;SDS011;21556;55.782;37.528;2022-12-29T01:09:15;7.90;;;1.70;;
35434;SDS011;21556;55.782;37.528;2022-12-29T01:11:59;5.03;;;1.57;;
35434;SDS011;21556;55.782;37.528;2022-12-29T01:14:25;4.23;;;1.60;;
35434;SDS011;21556;55.782;37.528;2022-12-29T01:16:51;2.67;;;1.00;;
35434;SDS011;21556;55.782;37.528;2022-12-29T01:19:17;3.13;;;0.93;;
35434;SDS011;21556;55.782;37.528;2022-12-29T01:21:43;6.07;;;0.73;;
35434;SDS011;21556;55.782;37.528;2022-12-29T01:24:09;5.00;;;1.33;;
35434;SDS011;21556;55.782;37.528;2022-12-29T01:26:34;5.77;;;1.07;;
35434;SDS011;21556;55.782;37.528;2022-12-29T01:29:00;5.17;;;1.10;;
35434;SDS011;21556;55.782;37.528;2022-12-29T01:31:28;5.10;;;1.45;;
35434;SDS011;21556;55.782;37.528;2022-12-29T01:33:54;5.93;;;2.07;;
35434;SDS011;21556;55.782;37.528;2022-12-29T01:36:19;5.00;;;1.27;;
35434;SDS011;21556;55.782;37.528;2022-12-29T01:38:45;3.60;;;0.83;;
35434;SDS011;21556;55.782;37.528;2022-12-29T01:41:12;3.70;;;1.63;;
35434;SDS011;21556;55.782;37.528;2022-12-29T01:43:39;3.70;;;1.10;;
35434;SDS011;21556;55.782;37.528;2022-12-29T01:46:04;4.23;;;1.20;;
35434;SDS011;21556;55.782;37.528;2022-12-29T01:48:33;3.83;;;1.27;;
35434;SDS011;21556;55.782;37.528;2022-12-29T01:51:00;4.20;;;1.40;;
35434;SDS011;21556;55.782;37.528;2022-12-29T01:53:29;4.73;;;1.50;;
35434;SDS011;21556;55.782;37.528;2022-12-29T01:55:59;4.47;;;1.07;;
35434;SDS011;21556;55.782;37.528;2022-12-29T01:58:28;5.60;;;1.47;;
35434;SDS011;21556;55.782;37.528;2022-12-29T02:00:54;3.13;;;1.02;;
35434;SDS011;21556;55.782;37.528;2022-12-29T02:03:20;3.60;;;1.20;;
35434;SDS011;21556;55.782;37.528;2022-12-29T02:05:55;7.73;;;2.00;;
35434;SDS011;21556;55.782;37.528;2022-12-29T02:08:22;3.90;;;1.30;;
35434;SDS011;21556;55.782;37.528;2022-12-29T02:10:50;3.53;;;1.10;;
35434;SDS011;21556;55.782;37.528;2022-12-29T02:13:16;3.73;;;1.30;;
35434;SDS011;21556;55.782;37.528;2022-12-29T02:23:58;6.33;;;1.70;;
35434;SDS011;21556;55.782;37.528;2022-12-29T02:32:03;5.82;;;2.15;;
35434;SDS011;21556;55.782;37.528;2022-12-29T02:34:45;4.47;;;1.10;;
35434;SDS011;21556;55.782;37.528;2022-12-29T02:37:15;7.23;;;1.47;;
35434;SDS011;21556;55.782;37.528;2022-12-29T02:44:53;5.67;;;1.97;;
35434;SDS011;21556;55.782;37.528;2022-12-29T02:52:18;4.20;;;1.30;;
35434;SDS011;21556;55.782;37.528;2022-12-29T02:54:48;7.07;;;1.63;;
35434;SDS011;21556;55.782;37.528;2022-12-29T03:10:14;6.80;;;2.17;;
35434;SDS011;21556;55.782;37.528;2022-12-29T03:13:01;7.80;;;1.77;;
35434;SDS011;21556;55.782;37.528;2022-12-29T03:15:53;6.37;;;2.20;;
35434;SDS011;21556;55.782;37.528;2022-12-29T03:20:58;4.13;;;1.30;;
35434;SDS011;21556;55.782;37.528;2022-12-29T03:23:26;6.87;;;2.63;;
35434;SDS011;21556;55.782;37.528;2022-12-29T03:25:54;6.70;;;2.00;;
35434;SDS011;21556;55.782;37.528;2022-12-29T03:28:22;4.00;;;2.17;;
35434;SDS011;21556;55.782;37.528;2022-12-29T03:30:49;6.38;;;1.70;;
35434;SDS011;21556;55.782;37.528;2022-12-29T03:33:19;5.15;;;1.63;;
35434;SDS011;21556;55.782;37.528;2022-12-29T03:35:47;5.47;;;1.87;;
35434;SDS011;21556;55.782;37.528;2022-12-29T03:38:25;4.55;;;1.33;;
35434;SDS011;21556;55.782;37.528;2022-12-29T03:40:56;4.03;;;1.37;;
35434;SDS011;21556;55.782;37.528;2022-12-29T03:43:25;4.90;;;1.77;;
35434;SDS011;21556;55.782;37.528;2022-12-29T03:45:51;7.80;;;1.97;;
35434;SDS011;21556;55.782;37.528;2022-12-29T03:48:17;3.47;;;1.40;;
35434;SDS011;21556;55.782;37.528;2022-12-29T03:50:45;5.57;;;1.70;;
35434;SDS011;21556;55.782;37.528;2022-12-29T03:53:10;4.00;;;2.17;;
35434;SDS011;21556;55.782;37.528;2022-12-29T03:55:37;4.93;;;1.80;;
35434;SDS011;21556;55.782;37.528;2022-12-29T03:58:03;4.27;;;1.40;;
35434;SDS011;21556;55.782;37.528;2022-12-29T04:00:44;7.07;;;1.50;;
35434;SDS011;21556;55.782;37.528;2022-12-29T04:03:10;7.30;;;3.17;;
35434;SDS011;21556;55.782;37.528;2022-12-29T04:05:36;6.50;;;2.00;;
35434;SDS011;21556;55.782;37.528;2022-12-29T04:08:02;7.93;;;2.00;;
35434;SDS011;21556;55.782;37.528;2022-12-29T04:10:29;4.70;;;1.85;;
35434;SDS011;21556;55.782;37.528;2022-12-29T04:12:58;6.83;;;2.00;;
35434;SDS011;21556;55.782;37.528;2022-12-29T04:15:24;5.77;;;1.80;;
35434;SDS011;21556;55.782;37.528;2022-12-29T04:17:52;5.40;;;1.43;;
35434;SDS011;21556;55.782;37.528;2022-12-29T04:20:18;6.13;;;1.63;;
35434;SDS011;21556;55.782;37.528;2022-12-29T04:23:06;3.53;;;1.20;;
35434;SDS011;21556;55.782;37.528;2022-12-29T04:25:33;4.93;;;1.60;;
35434;SDS011;21556;55.782;37.528;2022-12-29T04:27:59;7.60;;;2.17;;
35434;SDS011;21556;55.782;37.528;2022-12-29T04:30:47;5.32;;;1.30;;
35434;SDS011;21556;55.782;37.528;2022-12-29T04:33:21;6.70;;;1.60;;
35434;SDS011;21556;55.782;37.528;2022-12-29T04:35:47;5.43;;;1.90;;
35434;SDS011;21556;55.782;37.528;2022-12-29T04:38:13;4.10;;;1.43;;
35434;SDS011;21556;55.782;37.528;2022-12-29T04:40:41;6.50;;;1.90;;
35434;SDS011;21556;55.782;37.528;2022-12-29T04:43:08;5.20;;;1.58;;
35434;SDS011;21556;55.782;37.528;2022-12-29T04:45:45;5.07;;;1.77;;
35434;SDS011;21556;55.782;37.528;2022-12-29T04:48:23;5.07;;;1.90;;
35434;SDS011;21556;55.782;37.528;2022-12-29T04:51:15;3.23;;;1.63;;
35434;SDS011;21556;55.782;37.528;2022-12-29T04:53:41;3.57;;;1.87;;
35434;SDS011;21556;55.782;37.528;2022-12-29T04:56:07;3.63;;;1.87;;
35434;SDS011;21556;55.782;37.528;2022-12-29T04:58:34;5.50;;;2.30;;
35434;SDS011;21556;55.782;37.528;2022-12-29T05:01:02;7.03;;;2.57;;
35434;SDS011;21556;55.782;37.528;2022-12-29T05:03:29;6.13;;;2.03;;
35434;SDS011;21556;55.782;37.528;2022-12-29T05:05:55;8.27;;;2.20;;
35434;SDS011;21556;55.782;37.528;2022-12-29T05:08:21;4.17;;;2.07;;
35434;SDS011;21556;55.782;37.528;2022-12-29T05:10:47;8.43;;;2.53;;
35434;SDS011;21556;55.782;37.528;2022-12-29T05:13:16;5.30;;;2.30;;
35434;SDS011;21556;55.782;37.528;2022-12-29T05:15:47;3.70;;;1.97;;
35434;SDS011;21556;55.782;37.528;2022-12-29T05:18:13;8.23;;;2.73;;
35434;SDS011;21556;55.782;37.528;2022-12-29T05:20:39;6.07;;;2.30;;
35434;SDS011;21556;55.782;37.528;2022-12-29T05:23:05;6.73;;;3.03;;
35434;SDS011;21556;55.782;37.528;2022-12-29T05:25:31;5.07;;;2.13;;
35434;SDS011;21556;55.782;37.528;2022-12-29T05:28:25;6.77;;;2.17;;
35434;SDS011;21556;55.782;37.528;2022-12-29T05:30:58;3.50;;;1.90;;
35434;SDS011;21556;55.782;37.528;2022-12-29T05:33:24;5.50;;;1.60;;
35434;SDS011;21556;55.782;37.528;2022-12-29T05:35:50;6.30;;;2.33;;
35434;SDS011;21556;55.782;37.528;2022-12-29T05:38:17;7.07;;;1.90;;
35434;SDS011;21556;55.782;37.528;2022-12-29T05:40:43;4.50;;;2.13;;
35434;SDS011;21556;55.782;37.528;2022-12-29T05:43:27;4.80;;;2.30;;
35434;SDS011;21556;55.782;37.528;2022-12-29T05:46:16;4.30;;;2.27;;
35434;SDS011;21556;55.782;37.528;2022-12-29T05:49:02;4.70;;;2.17;;
35434;SDS011;21556;55.782;37.528;2022-12-29T05:51:36;6.47;;;2.30;;
35434;SDS011;21556;55.782;37.528;2022-12-29T05:54:01;5.43;;;2.20;;
35434;SDS011;21556;55.782;37.528;2022-12-29T05:56:27;8.87;;;2.57;;
35434;SDS011;21556;55.782;37.528;2022-12-29T05:58:56;6.23;;;3.10;;
35434;SDS011;21556;55.782;37.528;2022-12-29T06:01:23;8.27;;;3.27;;
35434;SDS011;21556;55.782;37.528;2022-12-29T06:03:49;5.50;;;2.30;;
35434;SDS011;21556;55.782;37.528;2022-12-29T06:06:17;6.88;;;2.50;;
35434;SDS011;21556;55.782;37.528;2022-12-29T06:08:43;5.67;;;1.90;;
35434;SDS011;21556;55.782;37.528;2022-12-29T06:11:09;4.80;;;2.20;;
35434;SDS011;21556;55.782;37.528;2022-12-29T06:13:35;8.90;;;2.80;;
35434;SDS011;21556;55.782;37.528;2022-12-29T06:16:02;9.47;;;3.43;;
35434;SDS011;21556;55.782;37.528;2022-12-29T06:18:28;9.50;;;2.60;;
35434;SDS011;21556;55.782;37.528;2022-12-29T06:20:59;7.00;;;3.13;;
35434;SDS011;21556;55.782;37.528;2022-12-29T06:23:24;5.87;;;2.47;;
35434;SDS011;21556;55.782;37.528;2022-12-29T06:25:50;5.77;;;3.20;;
35434;SDS011;21556;55.782;37.528;2022-12-29T06:28:16;6.50;;;3.03;;
35434;SDS011;21556;55.782;37.528;2022-12-29T06:30:45;5.43;;;2.70;;
35434;SDS011;21556;55.782;37.528;2022-12-29T06:33:11;6.67;;;3.07;;
35434;SDS011;21556;55.782;37.528;2022-12-29T06:35:37;6.43;;;3.47;;
35434;SDS011;21556;55.782;37.528;2022-12-29T06:38:03;8.93;;;3.27;;
35434;SDS011;21556;55.782;37.528;2022-12-29T06:40:29;6.33;;;2.87;;
35434;SDS011;21556;55.782;37.528;2022-12-29T06:43:20;5.20;;;3.63;;
35434;SDS011;21556;55.782;37.528;2022-12-29T06:46:01;5.60;;;2.50;;
35434;SDS011;21556;55.782;37.528;2022-12-29T06:48:28;5.90;;;3.00;;
35434;SDS011;21556;55.782;37.528;2022-12-29T06:50:54;5.63;;;2.53;;
35434;SDS011;21556;55.782;37.528;2022-12-29T06:53:22;6.70;;;2.43;;
35434;SDS011;21556;55.782;37.528;2022-12-29T06:55:48;6.57;;;2.77;;
35434;SDS011;21556;55.782;37.528;2022-12-29T06:58:13;5.47;;;2.30;;
35434;SDS011;21556;55.782;37.528;2022-12-29T07:00:39;6.90;;;2.63;;
35434;SDS011;21556;55.782;37.528;2022-12-29T07:03:05;8.43;;;3.07;;
35434;SDS011;21556;55.782;37.528;2022-12-29T07:05:30;8.53;;;2.70;;
35434;SDS011;21556;55.782;37.528;2022-12-29T07:07:58;4.43;;;2.10;;
35434;SDS011;21556;55.782;37.528;2022-12-29T07:10:23;7.97;;;2.90;;
35434;SDS011;21556;55.782;37.528;2022-12-29T07:12:49;9.57;;;2.90;;
35434;SDS011;21556;55.782;37.528;2022-12-29T07:15:15;6.43;;;2.60;;
35434;SDS011;21556;55.782;37.528;2022-12-29T07:17:40;5.50;;;2.90;;
35434;SDS011;21556;55.782;37.528;2022-12-29T07:20:06;6.33;;;2.83;;
35434;SDS011;21556;55.782;37.528;2022-12-29T07:22:32;4.37;;;2.33;;
35434;SDS011;21556;55.782;37.528;2022-12-29T07:24:58;8.93;;;2.50;;
35434;SDS011;21556;55.782;37.528;2022-12-29T07:27:23;4.00;;;2.43;;
35434;SDS011;21556;55.782;37.528;2022-12-29T07:29:49;8.23;;;2.27;;
35434;SDS011;21556;55.782;37.528;2022-12-29T07:32:14;5.07;;;2.43;;
35434;SDS011;21556;55.782;37.528;2022-12-29T07:34:40;7.63;;;2.67;;
35434;SDS011;21556;55.782;37.528;2022-12-29T07:37:06;8.07;;;2.40;;
35434;SDS011;21556;55.782;37.528;2022-12-29T07:39:31;8.03;;;3.13;;
35434;SDS011;21556;55.782;37.528;2022-12-29T07:41:57;7.30;;;2.67;;
35434;SDS011;21556;55.782;37.528;2022-12-29T07:44:24;5.10;;;2.40;;
35434;SDS011;21556;55.782;37.528;2022-12-29T07:47:11;4.67;;;2.47;;
35434;SDS011;21556;55.782;37.528;2022-12-29T07:49:36;3.57;;;2.40;;
35434;SDS011;21556;55.782;37.528;2022-12-29T07:52:02;6.13;;;3.10;;
35434;SDS011;21556;55.782;37.528;2022-12-29T07:54:28;4.77;;;2.60;;
35434;SDS011;21556;55.782;37.528;2022-12-29T07:56:53;6.03;;;3.03;;
35434;SDS011;21556;55.782;37.528;2022-12-29T07:59:19;4.30;;;3.07;;
35434;SDS011;21556;55.782;37.528;2022-12-29T08:01:45;7.03;;;3.00;;
35434;SDS011;21556;55.782;37.528;2022-12-29T08:04:11;8.53;;;3.37;;
35434;SDS011;21556;55.782;37.528;2022-12-29T08:06:36;6.40;;;2.80;;
35434;SDS011;21556;55.782;37.528;2022-12-29T08:09:03;6.13;;;3.20;;
35434;SDS011;21556;55.782;37.528;2022-12-29T08:11:28;6.17;;;3.30;;
35434;SDS011;21556;55.782;37.528;2022-12-29T08:13:54;4.63;;;3.13;;
35434;SDS011;21556;55.782;37.528;2022-12-29T08:16:19;5.10;;;3.10;;
35434;SDS011;21556;55.782;37.528;2022-12-29T08:18:45;9.37;;;3.77;;
35434;SDS011;21556;55.782;37.528;2022-12-29T08:21:11;9.37;;;3.70;;
35434;SDS011;21556;55.782;37.528;2022-12-29T08:23:36;7.30;;;3.60;;
35434;SDS011;21556;55.782;37.528;2022-12-29T08:26:03;9.83;;;3.60;;
35434;SDS011;21556;55.782;37.528;2022-12-29T08:28:29;4.73;;;3.20;;
35434;SDS011;21556;55.782;37.528;2022-12-29T08:30:58;6.50;;;3.43;;
35434;SDS011;21556;55.782;37.528;2022-12-29T08:33:24;7.80;;;4.50;;
35434;SDS011;21556;55.782;37.528;2022-12-29T08:35:49;10.37;;;4.50;;
35434;SDS011;21556;55.782;37.528;2022-12-29T08:38:15;8.73;;;3.97;;
35434;SDS011;21556;55.782;37.528;2022-12-29T08:40:40;10.30;;;5.67;;
35434;SDS011;21556;55.782;37.528;2022-12-29T08:43:06;10.70;;;4.30;;
35434;SDS011;21556;55.782;37.528;2022-12-29T08:45:32;11.13;;;5.83;;
35434;SDS011;21556;55.782;37.528;2022-12-29T08:47:57;11.67;;;5.50;;
35434;SDS011;21556;55.782;37.528;2022-12-29T08:50:23;9.23;;;4.90;;
35434;SDS011;21556;55.782;37.528;2022-12-29T08:52:48;14.10;;;5.10;;
35434;SDS011;21556;55.782;37.528;2022-12-29T08:55:14;13.83;;;5.60;;
35434;SDS011;21556;55.782;37.528;2022-12-29T08:57:40;11.70;;;5.37;;
35434;SDS011;21556;55.782;37.528;2022-12-29T09:00:14;10.27;;;6.00;;
35434;SDS011;21556;55.782;37.528;2022-12-29T09:02:40;8.97;;;5.50;;
35434;SDS011;21556;55.782;37.528;2022-12-29T09:05:06;12.03;;;5.83;;
35434;SDS011;21556;55.782;37.528;2022-12-29T09:07:32;11.03;;;5.20;;
35434;SDS011;21556;55.782;37.528;2022-12-29T09:09:57;10.73;;;5.10;;
35434;SDS011;21556;55.782;37.528;2022-12-29T09:12:23;9.63;;;5.60;;
35434;SDS011;21556;55.782;37.528;2022-12-29T09:14:48;10.03;;;5.80;;
35434;SDS011;21556;55.782;37.528;2022-12-29T09:17:14;10.87;;;5.80;;
35434;SDS011;21556;55.782;37.528;2022-12-29T09:19:59;8.60;;;5.53;;
35434;SDS011;21556;55.782;37.528;2022-12-29T09:22:24;12.67;;;6.17;;
35434;SDS011;21556;55.782;37.528;2022-12-29T09:24:50;9.30;;;6.07;;
35434;SDS011;21556;55.782;37.528;2022-12-29T09:27:15;10.50;;;6.57;;
35434;SDS011;21556;55.782;37.528;2022-12-29T09:29:41;9.60;;;5.67;;
35434;SDS011;21556;55.782;37.528;2022-12-29T09:32:07;13.63;;;6.47;;
35434;SDS011;21556;55.782;37.528;2022-12-29T09:34:32;11.20;;;7.37;;
35434;SDS011;21556;55.782;37.528;2022-12-29T09:36:58;10.27;;;7.20;;
35434;SDS011;21556;55.782;37.528;2022-12-29T09:39:24;19.37;;;7.83;;
35434;SDS011;21556;55.782;37.528;2022-12-29T09:41:52;10.27;;;7.00;;
35434;SDS011;21556;55.782;37.528;2022-12-29T09:45:07;10.23;;;7.20;;
35434;SDS011;21556;55.782;37.528;2022-12-29T09:47:13;10.90;;;6.90;;
35434;SDS011;21556;55.782;37.528;2022-12-29T09:52:27;11.23;;;7.47;;
35434;SDS011;21556;55.782;37.528;2022-12-29T09:55:02;12.67;;;7.33;;
35434;SDS011;21556;55.782;37.528;2022-12-29T09:57:40;12.63;;;7.57;;
35434;SDS011;21556;55.782;37.528;2022-12-29T10:00:14;14.73;;;7.50;;
35434;SDS011;21556;55.782;37.528;2022-12-29T10:02:43;16.97;;;7.90;;
35434;SDS011;21556;55.782;37.528;2022-12-29T10:05:13;12.63;;;7.87;;
35434;SDS011;21556;55.782;37.528;2022-12-29T10:08:00;12.10;;;7.93;;
35434;SDS011;21556;55.782;37.528;2022-12-29T10:10:35;13.87;;;7.03;;
35434;SDS011;21556;55.782;37.528;2022-12-29T10:25:42;11.30;;;7.73;;
35434;SDS011;21556;55.782;37.528;2022-12-29T10:28:22;16.23;;;8.13;;
35434;SDS011;21556;55.782;37.528;2022-12-29T10:30:48;11.33;;;7.00;;
35434;SDS011;21556;55.782;37.528;2022-12-29T10:33:22;11.80;;;7.97;;
35434;SDS011;21556;55.782;37.528;2022-12-29T10:35:49;16.83;;;7.77;;
35434;SDS011;21556;55.782;37.528;2022-12-29T10:40:48;15.67;;;9.00;;
35434;SDS011;21556;55.782;37.528;2022-12-29T10:45:48;14.83;;;7.53;;
35434;SDS011;21556;55.782;37.528;2022-12-29T10:48:47;11.93;;;7.77;;
35434;SDS011;21556;55.782;37.528;2022-12-29T10:51:11;12.47;;;7.70;;
35434;SDS011;21556;55.782;37.528;2022-12-29T10:54:01;10.27;;;7.00;;
35434;SDS011;21556;55.782;37.528;2022-12-29T10:56:31;12.32;;;6.78;;
35434;SDS011;21556;55.782;37.528;2022-12-29T10:58:59;9.90;;;6.47;;
35434;SDS011;21556;55.782;37.528;2022-12-29T11:01:27;7.10;;;3.87;;
35434;SDS011;21556;55.782;37.528;2022-12-29T11:04:03;8.23;;;5.03;;
35434;SDS011;21556;55.782;37.528;2022-12-29T11:06:30;7.83;;;5.07;;
35434;SDS011;21556;55.782;37.528;2022-12-29T11:09:02;10.07;;;4.37;;
35434;SDS011;21556;55.782;37.528;2022-12-29T11:11:34;6.53;;;4.23;;
35434;SDS011;21556;55.782;37.528;2022-12-29T11:14:21;9.50;;;5.13;;
35434;SDS011;21556;55.782;37.528;2022-12-29T11:17:00;9.40;;;5.90;;
35434;SDS011;21556;55.782;37.528;2022-12-29T11:19:33;12.97;;;7.53;;
35434;SDS011;21556;55.782;37.528;2022-12-29T11:22:21;13.10;;;6.83;;
35434;SDS011;21556;55.782;37.528;2022-12-29T11:24:48;11.70;;;8.40;;
35434;SDS011;21556;55.782;37.528;2022-12-29T11:27:31;22.47;;;7.40;;
35434;SDS011;21556;55.782;37.528;2022-12-29T11:29:58;12.70;;;8.63;;
35434;SDS011;21556;55.782;37.528;2022-12-29T11:32:24;11.67;;;8.17;;
35434;SDS011;21556;55.782;37.528;2022-12-29T11:34:51;16.23;;;7.93;;
35434;SDS011;21556;55.782;37.528;2022-12-29T11:37:23;24.67;;;9.80;;
35434;SDS011;21556;55.782;37.528;2022-12-29T11:42:22;22.43;;;9.97;;
35434;SDS011;21556;55.782;37.528;2022-12-29T11:44:49;13.40;;;8.87;;
35434;SDS011;21556;55.782;37.528;2022-12-29T11:47:32;14.47;;;9.43;;
35434;SDS011;21556;55.782;37.528;2022-12-29T11:50:22;12.10;;;7.97;;
35434;SDS011;21556;55.782;37.528;2022-12-29T11:52:48;15.20;;;8.23;;
35434;SDS011;21556;55.782;37.528;2022-12-29T11:55:18;12.93;;;7.17;;
35434;SDS011;21556;55.782;37.528;2022-12-29T11:57:47;14.07;;;7.87;;
35434;SDS011;21556;55.782;37.528;2022-12-29T12:05:44;11.43;;;7.87;;
35434;SDS011;21556;55.782;37.528;2022-12-29T12:08:13;11.90;;;7.50;;
35434;SDS011;21556;55.782;37.528;2022-12-29T12:10:46;12.43;;;7.30;;
35434;SDS011;21556;55.782;37.528;2022-12-29T12:16:09;10.13;;;6.40;;
35434;SDS011;21556;55.782;37.528;2022-12-29T12:21:22;13.53;;;7.07;;
35434;SDS011;21556;55.782;37.528;2022-12-29T12:23:57;12.63;;;7.80;;
35434;SDS011;21556;55.782;37.528;2022-12-29T12:26:28;12.23;;;8.40;;
35434;SDS011;21556;55.782;37.528;2022-12-29T12:28:56;13.63;;;8.03;;
35434;SDS011;21556;55.782;37.528;2022-12-29T12:31:34;13.27;;;8.43;;
35434;SDS011;21556;55.782;37.528;2022-12-29T12:34:05;16.93;;;9.20;;
35434;SDS011;21556;55.782;37.528;2022-12-29T12:36:49;10.98;;;6.70;;
35434;SDS011;21556;55.782;37.528;2022-12-29T12:39:26;13.77;;;9.10;;
35434;SDS011;21556;55.782;37.528;2022-12-29T12:47:27;14.13;;;8.93;;
35434;SDS011;21556;55.782;37.528;2022-12-29T12:52:56;15.30;;;8.15;;
35434;SDS011;21556;55.782;37.528;2022-12-29T12:55:39;11.50;;;7.17;;
35434;SDS011;21556;55.782;37.528;2022-12-29T12:58:16;12.50;;;7.30;;
35434;SDS011;21556;55.782;37.528;2022-12-29T13:00:52;11.13;;;7.60;;
35434;SDS011;21556;55.782;37.528;2022-12-29T13:03:43;10.90;;;7.20;;
35434;SDS011;21556;55.782;37.528;2022-12-29T13:13:52;16.77;;;9.13;;
35434;SDS011;21556;55.782;37.528;2022-12-29T13:16:34;13.50;;;7.93;;
35434;SDS011;21556;55.782;37.528;2022-12-29T13:19:08;14.43;;;8.17;;
35434;SDS011;21556;55.782;37.528;2022-12-29T13:22:11;12.07;;;7.73;;
35434;SDS011;21556;55.782;37.528;2022-12-29T13:24:36;16.67;;;9.13;;
35434;SDS011;21556;55.782;37.528;2022-12-29T13:37:58;13.47;;;9.37;;
35434;SDS011;21556;55.782;37.528;2022-12-29T13:40:25;14.80;;;8.37;;
35434;SDS011;21556;55.782;37.528;2022-12-29T13:42:52;12.40;;;7.40;;
35434;SDS011;21556;55.782;37.528;2022-12-29T13:45:20;12.35;;;7.30;;
35434;SDS011;21556;55.782;37.528;2022-12-29T13:50:19;17.10;;;7.80;;
35434;SDS011;21556;55.782;37.528;2022-12-29T13:55:24;13.00;;;8.20;;
35434;SDS011;21556;55.782;37.528;2022-12-29T13:57:55;12.50;;;7.97;;
35434;SDS011;21556;55.782;37.528;2022-12-29T14:00:23;17.10;;;9.60;;
35434;SDS011;21556;55.782;37.528;2022-12-29T14:03:01;10.55;;;6.40;;
35434;SDS011;21556;55.782;37.528;2022-12-29T14:05:31;18.57;;;8.73;;
35434;SDS011;21556;55.782;37.528;2022-12-29T14:07:58;12.73;;;7.20;;
35434;SDS011;21556;55.782;37.528;2022-12-29T14:12:50;15.43;;;8.43;;
35434;SDS011;21556;55.782;37.528;2022-12-29T14:15:22;14.97;;;7.60;;
35434;SDS011;21556;55.782;37.528;2022-12-29T14:18:04;13.03;;;8.33;;
35434;SDS011;21556;55.782;37.528;2022-12-29T14:20:31;12.73;;;8.53;;
35434;SDS011;21556;55.782;37.528;2022-12-29T14:22:58;14.23;;;9.00;;
35434;SDS011;21556;55.782;37.528;2022-12-29T14:28:23;15.87;;;9.43;;
35434;SDS011;21556;55.782;37.528;2022-12-29T14:30:50;13.37;;;8.93;;
35434;SDS011;21556;55.782;37.528;2022-12-29T14:33:16;15.73;;;9.60;;
35434;SDS011;21556;55.782;37.528;2022-12-29T14:35:43;16.57;;;9.63;;
35434;SDS011;21556;55.782;37.528;2022-12-29T14:40:36;18.03;;;8.90;;
35434;SDS011;21556;55.782;37.528;2022-12-29T14:43:02;14.73;;;9.97;;
35434;SDS011;21556;55.782;37.528;2022-12-29T14:45:37;17.00;;;9.63;;
35434;SDS011;21556;55.782;37.528;2022-12-29T14:48:20;13.80;;;9.63;;
35434;SDS011;21556;55.782;37.528;2022-12-29T14:50:47;17.37;;;10.97;;
35434;SDS011;21556;55.782;37.528;2022-12-29T14:55:58;17.67;;;9.13;;
35434;SDS011;21556;55.782;37.528;2022-12-29T14:58:28;15.60;;;9.17;;
35434;SDS011;21556;55.782;37.528;2022-12-29T15:00:55;13.77;;;9.60;;
35434;SDS011;21556;55.782;37.528;2022-12-29T15:03:36;16.07;;;9.53;;
35434;SDS011;21556;55.782;37.528;2022-12-29T15:08:33;18.83;;;10.60;;
35434;SDS011;21556;55.782;37.528;2022-12-29T15:11:01;13.30;;;8.10;;
35434;SDS011;21556;55.782;37.528;2022-12-29T15:13:34;18.57;;;9.87;;
35434;SDS011;21556;55.782;37.528;2022-12-29T15:16:01;17.93;;;9.60;;
35434;SDS011;21556;55.782;37.528;2022-12-29T15:18:28;17.90;;;10.10;;
35434;SDS011;21556;55.782;37.528;2022-12-29T15:20:58;22.20;;;10.45;;
35434;SDS011;21556;55.782;37.528;2022-12-29T15:23:24;18.23;;;10.30;;
35434;SDS011;21556;55.782;37.528;2022-12-29T15:26:04;20.50;;;11.30;;
35434;SDS011;21556;55.782;37.528;2022-12-29T15:28:40;22.07;;;10.90;;
35434;SDS011;21556;55.782;37.528;2022-12-29T15:33:43;19.93;;;10.50;;
35434;SDS011;21556;55.782;37.528;2022-12-29T15:36:11;20.93;;;10.90;;
35434;SDS011;21556;55.782;37.528;2022-12-29T15:38:38;25.13;;;11.27;;
35434;SDS011;21556;55.782;37.528;2022-12-29T15:41:13;21.73;;;12.20;;
35434;SDS011;21556;55.782;37.528;2022-12-29T15:43:45;21.23;;;11.82;;
35434;SDS011;21556;55.782;37.528;2022-12-29T15:46:12;19.33;;;11.00;;
35434;SDS011;21556;55.782;37.528;2022-12-29T15:48:39;20.27;;;11.83;;
35434;SDS011;21556;55.782;37.528;2022-12-29T15:51:38;25.33;;;11.80;;
35434;SDS011;21556;55.782;37.528;2022-12-29T15:53:57;19.80;;;11.43;;
35434;SDS011;21556;55.782;37.528;2022-12-29T15:56:23;21.83;;;12.50;;
35434;SDS011;21556;55.782;37.528;2022-12-29T15:58:49;23.13;;;12.67;;
35434;SDS011;21556;55.782;37.528;2022-12-29T16:01:29;27.67;;;12.40;;
35434;SDS011;21556;55.782;37.528;2022-12-29T16:03:57;29.23;;;11.77;;
35434;SDS011;21556;55.782;37.528;2022-12-29T16:06:27;21.63;;;11.10;;
35434;SDS011;21556;55.782;37.528;2022-12-29T16:08:56;25.30;;;12.13;;
35434;SDS011;21556;55.782;37.528;2022-12-29T16:11:26;24.20;;;11.40;;
35434;SDS011;21556;55.782;37.528;2022-12-29T16:13:53;21.73;;;12.57;;
35434;SDS011;21556;55.782;37.528;2022-12-29T16:16:30;24.03;;;12.57;;
35434;SDS011;21556;55.782;37.528;2022-12-29T16:18:56;25.57;;;13.93;;
35434;SDS011;21556;55.782;37.528;2022-12-29T16:21:32;23.67;;;12.37;;
35434;SDS011;21556;55.782;37.528;2022-12-29T16:24:04;24.83;;;12.97;;
35434;SDS011;21556;55.782;37.528;2022-12-29T16:26:33;27.10;;;14.20;;
35434;SDS011;21556;55.782;37.528;2022-12-29T16:28:59;21.67;;;12.47;;
35434;SDS011;21556;55.782;37.528;2022-12-29T16:31:34;27.43;;;12.57;;
35434;SDS011;21556;55.782;37.528;2022-12-29T16:34:10;31.00;;;12.87;;
35434;SDS011;21556;55.782;37.528;2022-12-29T16:36:39;23.60;;;12.20;;
35434;SDS011;21556;55.782;37.528;2022-12-29T16:39:17;22.10;;;12.23;;
35434;SDS011;21556;55.782;37.528;2022-12-29T16:41:46;22.97;;;12.93;;
35434;SDS011;21556;55.782;37.528;2022-12-29T16:44:12;22.47;;;13.90;;
35434;SDS011;21556;55.782;37.528;2022-12-29T16:46:44;26.73;;;13.83;;
35434;SDS011;21556;55.782;37.528;2022-12-29T16:49:15;31.37;;;14.00;;